Time;durP1;ratioP1;P1;durP2;ratioP2;P2;SDS_P1;SDS_P2;PMS_P1;PMS_P2;Temp;Humidity;BMP_temperature;BMP_pressure;BME280_temperature;BME280_humidity;BME280_pressure;Samples;Min_cycle;Max_cycle;Signal;HPM_P1;HPM_P2
2022/04/09 00:02:18;;;;;;;13.23;3.45;;;;;;;3.43;84.61;100093.19;5061931;28;20676;-70
2022/04/09 00:04:44;;;;;;;11.82;3.40;;;;;;;3.37;84.88;100104.75;5064236;28;20560;-69
2022/04/09 00:07:09;;;;;;;22.15;3.33;;;;;;;3.35;84.76;100110.91;5061867;28;20043;-69
2022/04/09 00:09:35;;;;;;;11.10;3.08;;;;;;;3.23;85.71;100112.75;5059901;28;20469;-70
2022/04/09 00:12:02;;;;;;;18.50;3.80;;;;;;;3.31;85.50;100110.34;5081430;28;20032;-69
2022/04/09 00:14:27;;;;;;;16.63;3.50;;;;;;;3.30;85.72;100124.13;5059247;28;20536;-70
2022/04/09 00:16:53;;;;;;;14.85;3.15;;;;;;;3.20;86.26;100123.22;5062853;28;20032;-70
2022/04/09 00:19:19;;;;;;;14.77;3.28;;;;;;;3.36;86.41;100133.88;5059901;28;20442;-69
2022/04/09 00:21:46;;;;;;;16.77;3.25;;;;;;;3.29;86.41;100135.31;5061018;28;20425;-70
2022/04/09 00:24:12;;;;;;;12.75;3.28;;;;;;;3.24;86.75;100137.41;5060741;28;20047;-70
2022/04/09 00:26:38;;;;;;;18.48;4.60;;;;;;;3.25;86.92;100151.88;5061286;28;20139;-70
2022/04/09 00:29:03;;;;;;;16.40;3.40;;;;;;;3.12;87.19;100154.59;5061969;28;20120;-70
2022/04/09 00:31:29;;;;;;;17.98;3.70;;;;;;;3.20;87.27;100148.84;5056980;28;20035;-70
2022/04/09 00:33:54;;;;;;;25.17;3.53;;;;;;;3.20;87.15;100151.41;5065279;28;20071;-69
2022/04/09 00:36:20;;;;;;;18.92;3.63;;;;;;;3.19;87.56;100170.31;5046263;28;20606;-69
2022/04/09 00:38:45;;;;;;;14.40;3.22;;;;;;;3.20;87.54;100167.63;5057483;28;20040;-69
2022/04/09 00:41:11;;;;;;;17.73;3.13;;;;;;;3.16;87.56;100181.59;5061019;28;20119;-69
2022/04/09 00:43:41;;;;;;;12.30;3.55;;;;;;;3.15;87.46;100179.19;5060364;28;20478;-69
2022/04/09 00:46:07;;;;;;;17.13;3.60;;;;;;;3.18;87.68;100182.28;5075777;28;20040;-69
2022/04/09 00:48:36;;;;;;;13.75;2.58;;;;;;;3.07;87.71;100184.91;5063779;28;20067;-69
2022/04/09 00:51:02;;;;;;;15.23;2.75;;;;;;;3.17;87.39;100190.94;5062050;28;20044;-70
2022/04/09 00:53:34;;;;;;;9.63;2.55;;;;;;;3.06;87.59;100199.47;5061258;28;20033;-70
2022/04/09 00:56:15;;;;;;;13.35;3.47;;;;;;;3.04;88.19;100200.53;5060828;28;20554;-70
2022/04/09 00:58:45;;;;;;;25.88;4.22;;;;;;;3.08;88.34;100207.84;5078747;28;20048;-70
2022/04/09 01:01:11;;;;;;;16.67;2.85;;;;;;;3.07;87.99;100213.06;5059879;28;20056;-69
2022/04/09 01:03:38;;;;;;;18.27;2.85;;;;;;;2.97;88.15;100218.13;5060351;28;20036;-69
2022/04/09 01:06:06;;;;;;;27.08;3.83;;;;;;;2.96;88.51;100223.34;5076860;28;20071;-69
2022/04/09 01:08:31;;;;;;;17.85;3.20;;;;;;;2.89;88.17;100228.97;5044007;28;20028;-70
2022/04/09 01:10:57;;;;;;;12.35;3.08;;;;;;;2.83;88.99;100229.44;5060600;28;20024;-70
2022/04/09 01:13:24;;;;;;;12.10;2.75;;;;;;;2.91;88.62;100234.78;5075895;28;20032;-69
2022/04/09 01:15:49;;;;;;;14.05;3.33;;;;;;;2.91;88.39;100242.47;5077719;28;20029;-69
2022/04/09 01:18:15;;;;;;;19.35;4.32;;;;;;;2.85;88.74;100250.63;5058607;28;20033;-70
2022/04/09 01:20:44;;;;;;;24.27;3.22;;;;;;;3.02;88.99;100254.44;5073723;28;20158;-69
2022/04/09 01:23:10;;;;;;;16.27;3.97;;;;;;;2.97;88.52;100256.53;5043411;28;20040;-69
2022/04/09 01:25:37;;;;;;;19.90;4.45;;;;;;;2.90;88.65;100263.91;5058668;28;20044;-70
2022/04/09 01:28:04;;;;;;;14.75;3.15;;;;;;;2.78;89.35;100262.28;5042277;28;20048;-69
2022/04/09 01:30:30;;;;;;;17.02;3.25;;;;;;;2.84;89.88;100268.66;5061356;28;20149;-70
2022/04/09 01:32:56;;;;;;;16.15;4.13;;;;;;;2.87;89.53;100276.94;5060198;28;20034;-70
2022/04/09 01:35:23;;;;;;;30.73;4.22;;;;;;;2.91;89.58;100280.88;5073188;28;20039;-69
2022/04/09 01:37:49;;;;;;;15.27;4.05;;;;;;;2.89;89.22;100282.75;5060330;28;20570;-69
2022/04/09 01:40:16;;;;;;;17.05;4.30;;;;;;;2.93;89.26;100284.13;5057041;28;20037;-70
2022/04/09 01:42:46;;;;;;;21.67;3.53;;;;;;;2.90;89.50;100296.38;5057171;28;20036;-70
2022/04/09 01:45:11;;;;;;;15.55;3.40;;;;;;;2.91;89.89;100303.94;5059227;28;20048;-70
2022/04/09 01:47:44;;;;;;;21.70;3.50;;;;;;;2.90;89.29;100306.59;5060041;28;20474;-70
2022/04/09 01:50:10;;;;;;;23.73;3.33;;;;;;;2.89;89.49;100312.69;5040331;28;20033;-69
2022/04/09 01:52:36;;;;;;;18.05;3.65;;;;;;;2.93;89.31;100319.19;5059114;28;20032;-69
2022/04/09 01:55:02;;;;;;;20.90;3.80;;;;;;;2.84;89.54;100325.81;5063048;28;20024;-69
2022/04/09 01:57:28;;;;;;;20.20;3.53;;;;;;;2.88;89.53;100334.09;5059149;28;20033;-70
2022/04/09 01:59:55;;;;;;;19.38;3.33;;;;;;;2.92;89.52;100326.06;5058683;28;20029;-68
2022/04/09 02:02:20;;;;;;;17.08;4.38;;;;;;;2.86;89.54;100333.38;5061618;28;20044;-70
2022/04/09 02:04:46;;;;;;;19.35;3.50;;;;;;;2.83;89.43;100328.53;5063443;28;20041;-70
2022/04/09 02:07:13;;;;;;;11.07;2.95;;;;;;;2.88;89.34;100339.22;5059076;28;20039;-69
2022/04/09 02:09:40;;;;;;;21.50;4.53;;;;;;;2.85;89.46;100339.47;5060936;28;20220;-69
2022/04/09 02:12:06;;;;;;;22.05;3.47;;;;;;;2.82;89.79;100344.81;5072693;28;20021;-69
2022/04/09 02:14:32;;;;;;;24.10;3.90;;;;;;;2.79;89.32;100348.44;5056891;28;20029;-69
2022/04/09 02:16:57;;;;;;;23.98;4.15;;;;;;;2.73;89.68;100342.03;5067812;22;20100;-70
2022/04/09 02:19:23;;;;;;;22.15;3.67;;;;;;;2.70;89.88;100356.81;4970776;28;20057;-70
2022/04/09 02:21:48;;;;;;;17.55;3.22;;;;;;;2.73;90.04;100361.66;4974680;28;20492;-70
2022/04/09 02:24:14;;;;;;;31.27;3.63;;;;;;;2.76;89.82;100365.75;4977420;28;20148;-70
2022/04/09 02:26:39;;;;;;;20.70;4.43;;;;;;;2.79;89.79;100379.16;4976971;28;20026;-70
2022/04/09 02:29:06;;;;;;;23.50;3.33;;;;;;;2.78;89.89;100385.19;4965511;28;20131;-70
2022/04/09 02:31:31;;;;;;;19.70;2.97;;;;;;;2.73;89.89;100379.59;4945934;28;20034;-71
2022/04/09 02:33:57;;;;;;;24.50;4.07;;;;;;;2.75;89.80;100387.16;4975329;28;20093;-70
2022/04/09 02:36:24;;;;;;;24.80;4.05;;;;;;;2.68;90.01;100386.81;5051790;28;20037;-70
2022/04/09 02:38:50;;;;;;;24.05;3.47;;;;;;;2.65;90.27;100400.66;4974768;28;20072;-70
2022/04/09 02:41:16;;;;;;;27.42;4.57;;;;;;;2.66;90.00;100398.94;4961955;28;20423;-70
2022/04/09 02:43:43;;;;;;;25.73;4.18;;;;;;;2.66;90.36;100401.50;4982739;28;20038;-70
2022/04/09 02:46:09;;;;;;;17.30;3.30;;;;;;;2.69;90.18;100406.38;4952079;28;20130;-69
2022/04/09 02:48:38;;;;;;;29.42;3.40;;;;;;;2.70;90.02;100408.81;4969787;28;20034;-70
2022/04/09 02:51:03;;;;;;;22.30;3.97;;;;;;;2.71;89.87;100415.59;4971404;28;20082;-70
2022/04/09 02:53:29;;;;;;;30.80;4.15;;;;;;;2.78;89.56;100418.47;4963466;28;20202;-70
2022/04/09 02:55:58;;;;;;;19.98;3.25;;;;;;;2.72;89.85;100427.44;4958855;28;20037;-71
2022/04/09 02:58:23;;;;;;;24.15;3.90;;;;;;;2.56;90.14;100424.38;4973592;28;20034;-70
2022/04/09 03:00:49;;;;;;;20.25;4.43;;;;;;;2.62;89.73;100431.63;4969811;28;20525;-70
2022/04/09 03:03:18;;;;;;;23.83;4.72;;;;;;;2.69;89.39;100431.97;4957961;28;20031;-71
2022/04/09 03:05:46;;;;;;;21.27;3.70;;;;;;;2.71;89.25;100437.78;4965674;28;20044;-70
2022/04/09 03:08:12;;;;;;;18.50;3.65;;;;;;;2.79;89.55;100445.72;4958361;28;20027;-71
2022/04/09 03:10:37;;;;;;;20.73;4.47;;;;;;;2.76;89.60;100453.63;4968797;28;20088;-71
2022/04/09 03:13:06;;;;;;;16.20;3.35;;;;;;;2.81;89.61;100451.56;4943961;28;20038;-71
2022/04/09 03:15:31;;;;;;;23.20;3.85;;;;;;;2.78;89.27;100448.41;4955840;28;20988;-70
2022/04/09 03:17:58;;;;;;;19.92;3.60;;;;;;;2.72;89.81;100445.38;4963949;28;20034;-70
2022/04/09 03:20:25;;;;;;;21.30;4.70;;;;;;;2.75;89.79;100461.44;4972671;28;20499;-70
2022/04/09 03:22:53;;;;;;;21.65;3.72;;;;;;;2.80;89.71;100470.41;4968724;28;20039;-70
2022/04/09 03:25:37;;;;;;;25.92;4.30;;;;;;;2.87;89.46;100461.34;4971975;28;20092;-71
2022/04/09 03:28:03;;;;;;;15.50;3.08;;;;;;;2.93;89.41;100470.31;4964688;28;20116;-70
2022/04/09 03:30:31;;;;;;;22.02;4.28;;;;;;;2.92;89.14;100472.06;4965426;28;20783;-70
2022/04/09 03:32:58;;;;;;;30.52;3.80;;;;;;;3.00;88.87;100478.38;4975241;28;20485;-70
2022/04/09 03:35:29;;;;;;;27.02;4.20;;;;;;;2.97;88.71;100487.06;4986474;28;20032;-70
2022/04/09 03:37:56;;;;;;;21.50;3.92;;;;;;;2.82;89.70;100483.91;5040721;28;20302;-70
2022/04/09 03:40:29;;;;;;;18.35;3.92;;;;;;;2.89;89.57;100495.34;4975548;28;20582;-70
2022/04/09 03:42:54;;;;;;;22.77;3.30;;;;;;;2.92;89.33;100496.88;4961847;28;20062;-70
2022/04/09 03:45:20;;;;;;;27.73;4.60;;;;;;;3.06;89.19;100509.44;4973373;28;20034;-70
2022/04/09 03:47:46;;;;;;;26.75;4.50;;;;;;;3.08;88.44;100502.47;4960257;28;20037;-70
2022/04/09 03:50:16;;;;;;;27.60;6.28;;;;;;;3.00;89.08;100509.09;4966062;28;20046;-70
2022/04/09 03:52:44;;;;;;;26.30;4.05;;;;;;;3.03;89.35;100513.97;4961742;28;20134;-70
2022/04/09 03:55:10;;;;;;;26.38;3.42;;;;;;;3.10;88.72;100525.41;4968998;28;20510;-69
2022/04/09 03:57:36;;;;;;;26.35;4.70;;;;;;;3.09;88.48;100521.25;4959821;28;20039;-70
2022/04/09 04:00:03;;;;;;;15.02;3.85;;;;;;;3.16;88.21;100514.69;4987755;28;20042;-71
2022/04/09 04:02:40;;;;;;;23.73;3.95;;;;;;;3.23;88.21;100523.56;4973321;28;20082;-70
2022/04/09 04:05:06;;;;;;;25.38;3.92;;;;;;;3.26;87.34;100525.09;4978658;28;20034;-70
2022/04/09 04:07:35;;;;;;;16.40;3.15;;;;;;;3.15;87.51;100525.09;4975831;28;20536;-70
2022/04/09 04:10:06;;;;;;;25.83;3.78;;;;;;;3.14;86.90;100524.25;5058518;28;20035;-70
2022/04/09 04:12:32;;;;;;;26.00;3.75;;;;;;;3.09;87.60;100521.25;4944266;28;20100;-70
2022/04/09 04:14:58;;;;;;;21.40;4.28;;;;;;;3.15;87.14;100528.47;4958521;28;20039;-70
2022/04/09 04:17:24;;;;;;;28.13;4.28;;;;;;;3.11;87.16;100538.13;4990773;28;20447;-70
2022/04/09 04:19:50;;;;;;;21.63;3.20;;;;;;;3.03;87.67;100534.47;4964582;28;20035;-70
2022/04/09 04:22:18;;;;;;;23.88;4.55;;;;;;;2.99;86.83;100541.56;4973905;28;20033;-70
2022/04/09 04:24:44;;;;;;;28.35;3.97;;;;;;;3.09;87.26;100557.09;4974908;28;20125;-71
2022/04/09 04:27:09;;;;;;;18.35;3.60;;;;;;;3.13;86.41;100558.50;4962929;28;20672;-70
2022/04/09 04:29:37;;;;;;;20.52;4.30;;;;;;;3.20;86.49;100562.25;4975718;28;20026;-70
2022/04/09 04:32:04;;;;;;;20.52;3.97;;;;;;;3.15;86.48;100571.22;4961986;28;20027;-70
2022/04/09 04:34:30;;;;;;;17.65;2.72;;;;;;;3.08;86.67;100576.75;4965335;28;20099;-70
2022/04/09 04:36:55;;;;;;;28.33;3.63;;;;;;;3.03;86.59;100575.47;4951109;28;20039;-71
2022/04/09 04:39:24;;;;;;;21.98;5.03;;;;;;;3.00;86.87;100579.09;5061240;28;20091;-70
2022/04/09 04:41:51;;;;;;;21.83;3.97;;;;;;;2.86;87.17;100587.78;4967520;28;20125;-70
2022/04/09 04:44:17;;;;;;;23.75;4.07;;;;;;;2.81;87.24;100587.28;4980926;28;20417;-70
2022/04/09 04:46:48;;;;;;;25.92;3.28;;;;;;;2.85;87.61;100590.44;4971945;28;20027;-70
2022/04/09 04:49:19;;;;;;;20.33;4.07;;;;;;;2.80;87.71;100592.50;4975734;28;20069;-70
2022/04/09 04:51:47;;;;;;;28.63;4.72;;;;;;;2.72;87.95;100605.88;4968013;28;20023;-70
2022/04/09 04:54:13;;;;;;;27.92;5.68;;;;;;;2.67;88.50;100605.38;4974832;28;20043;-70
2022/04/09 04:56:42;;;;;;;20.77;3.72;;;;;;;2.65;87.97;100604.66;5055327;28;20043;-70
2022/04/09 04:59:08;;;;;;;15.15;2.83;;;;;;;2.53;88.46;100614.84;4966839;28;20043;-70
2022/04/09 05:01:40;;;;;;;19.77;4.03;;;;;;;2.48;88.95;100623.78;4973782;28;20035;-70
2022/04/09 05:04:06;;;;;;;26.42;4.28;;;;;;;2.51;88.59;100623.59;4956307;28;20439;-70
2022/04/09 05:06:35;;;;;;;28.42;5.93;;;;;;;2.49;89.13;100630.56;4968066;28;20126;-70
2022/04/09 05:09:02;;;;;;;17.75;4.95;;;;;;;2.60;88.99;100629.78;5057325;28;21810;-70
2022/04/09 05:11:37;;;;;;;22.52;5.38;;;;;;;2.59;88.89;100630.72;4963804;28;20039;-70
2022/04/09 05:14:06;;;;;;;27.85;5.78;;;;;;;2.64;88.92;100634.59;4959387;28;20708;-70
2022/04/09 05:16:34;;;;;;;27.50;5.75;;;;;;;2.47;89.92;100637.53;4946608;28;20058;-69
2022/04/09 05:19:05;;;;;;;32.95;5.70;;;;;;;2.44;90.02;100643.66;4976793;28;20523;-70
2022/04/09 05:21:33;;;;;;;19.45;5.32;;;;;;;2.40;90.35;100646.56;4963699;28;20047;-70
2022/04/09 05:23:59;;;;;;;23.20;4.38;;;;;;;2.41;90.24;100649.00;4963258;28;20038;-70
2022/04/09 05:26:24;;;;;;;18.70;4.78;;;;;;;2.39;90.98;100648.28;4958756;28;20093;-70
2022/04/09 05:28:54;;;;;;;19.08;4.13;;;;;;;2.49;90.79;100641.59;4959031;28;20054;-70
2022/04/09 05:31:27;;;;;;;28.92;4.32;;;;;;;2.43;90.59;100646.31;4953875;28;20031;-70
2022/04/09 05:33:54;;;;;;;20.48;4.70;;;;;;;2.41;90.59;100655.84;4963248;28;20026;-70
2022/04/09 05:36:21;;;;;;;30.35;4.53;;;;;;;2.43;91.10;100654.84;4957259;28;20022;-70
2022/04/09 05:38:50;;;;;;;25.42;4.53;;;;;;;2.63;90.67;100663.66;4959881;28;20035;-70
2022/04/09 05:41:16;;;;;;;20.58;4.13;;;;;;;2.62;90.33;100671.44;4968478;28;20398;-70
2022/04/09 05:43:41;;;;;;;25.73;4.97;;;;;;;2.58;89.98;100675.16;4974022;28;20039;-70
2022/04/09 05:46:07;;;;;;;27.27;4.45;;;;;;;2.59;89.84;100677.59;4971684;28;20481;-70
2022/04/09 05:48:35;;;;;;;24.55;4.75;;;;;;;2.56;90.61;100692.38;5055843;28;20018;-71
2022/04/09 05:51:01;;;;;;;23.27;4.55;;;;;;;2.66;89.98;100683.94;5040675;28;20030;-70
2022/04/09 05:53:32;;;;;;;22.75;4.22;;;;;;;2.66;89.86;100693.38;4946390;28;20515;-70
2022/04/09 05:55:58;;;;;;;19.77;3.63;;;;;;;2.77;89.76;100706.25;4961333;28;20042;-70
2022/04/09 05:58:31;;;;;;;18.63;4.25;;;;;;;2.87;89.03;100712.34;4984579;28;20126;-70
2022/04/09 06:01:00;;;;;;;17.90;3.55;;;;;;;2.93;88.98;100711.91;4961223;28;20142;-70
2022/04/09 06:03:30;;;;;;;17.10;3.75;;;;;;;2.93;88.82;100714.47;4961009;28;20023;-70
2022/04/09 06:05:56;;;;;;;28.45;5.72;;;;;;;2.92;88.83;100720.53;4982460;28;20120;-70
2022/04/09 06:08:33;;;;;;;21.20;3.47;;;;;;;2.98;88.62;100733.84;4962090;28;20069;-70
2022/04/09 06:11:01;;;;;;;23.73;3.80;;;;;;;3.01;88.22;100738.72;4961187;28;20050;-71
2022/04/09 06:13:27;;;;;;;25.25;3.22;;;;;;;3.04;87.99;100733.41;4957807;28;20027;-70
2022/04/09 06:15:53;;;;;;;23.85;3.97;;;;;;;3.12;88.14;100738.78;4947471;28;20038;-70
2022/04/09 06:18:24;;;;;;;26.02;3.88;;;;;;;3.27;87.62;100744.56;4965055;28;20331;-70
2022/04/09 06:20:50;;;;;;;29.42;4.63;;;;;;;3.25;88.19;100739.53;4964931;28;20056;-71
2022/04/09 06:23:19;;;;;;;28.15;4.13;;;;;;;3.29;87.81;100743.50;4958848;28;20034;-70
2022/04/09 06:25:44;;;;;;;26.42;4.45;;;;;;;3.50;87.48;100750.59;4994379;28;20038;-71
2022/04/09 06:28:13;;;;;;;22.13;4.95;;;;;;;3.63;86.82;100750.53;4954800;28;20026;-69
2022/04/09 06:30:42;;;;;;;25.95;4.13;;;;;;;3.75;86.82;100748.78;4967846;28;20041;-70
2022/04/09 06:33:16;;;;;;;30.13;6.82;;;;;;;3.82;86.15;100760.25;4972382;28;20505;-71
2022/04/09 06:35:42;;;;;;;21.85;3.75;;;;;;;3.93;85.11;100759.47;4950488;28;20042;-71
2022/04/09 06:38:12;;;;;;;22.95;3.90;;;;;;;3.83;85.06;100762.72;4968973;28;20030;-70
2022/04/09 06:40:38;;;;;;;15.52;4.25;;;;;;;3.95;85.43;100766.09;4949818;28;20038;-70
2022/04/09 06:43:04;;;;;;;21.63;3.78;;;;;;;3.95;85.09;100766.09;4956229;28;20034;-71
2022/04/09 06:45:48;;;;;;;27.42;4.15;;;;;;;3.94;84.66;100774.75;4969803;28;20053;-70
2022/04/09 06:48:23;;;;;;;20.38;4.28;;;;;;;4.07;85.24;100778.03;4961589;28;20389;-70
2022/04/09 06:51:21;;;;;;;20.30;3.70;;;;;;;4.26;84.47;100792.06;4962744;28;20114;-71
2022/04/09 06:53:47;;;;;;;20.63;4.13;;;;;;;4.29;83.73;100789.25;4960641;28;20100;-70
2022/04/09 06:56:12;;;;;;;30.00;4.82;;;;;;;4.80;82.43;100785.41;4943953;28;20427;-70
2022/04/09 06:58:38;;;;;;;24.55;3.85;;;;;;;5.41;79.17;100788.28;4969752;28;20031;-70
2022/04/09 07:01:03;;;;;;;23.85;3.80;;;;;;;5.18;78.58;100797.84;4963169;28;21027;-70
2022/04/09 07:03:34;;;;;;;22.33;4.80;;;;;;;6.14;76.30;100797.91;4981252;28;20392;-71
2022/04/09 07:05:59;;;;;;;26.42;4.28;;;;;;;7.18;72.58;100789.03;4963934;28;20047;-70
2022/04/09 07:08:25;;;;;;;20.05;3.83;;;;;;;7.87;69.31;100792.41;4984127;28;20035;-70
2022/04/09 07:10:50;;;;;;;21.38;4.65;;;;;;;8.02;67.99;100797.97;4965716;28;20098;-71
2022/04/09 07:13:16;;;;;;;20.77;4.32;;;;;;;8.21;67.42;100804.84;4965370;28;20046;-71
2022/04/09 07:15:42;;;;;;;19.75;4.13;;;;;;;7.47;68.87;100802.91;4967740;28;20038;-70
2022/04/09 07:18:08;;;;;;;25.42;4.47;;;;;;;8.05;67.87;100807.22;4953652;28;20031;-71
2022/04/09 07:20:35;;;;;;;20.95;3.75;;;;;;;8.02;66.94;100812.66;4968294;28;20046;-70
2022/04/09 07:23:02;;;;;;;22.23;4.75;;;;;;;8.75;65.09;100816.25;4971303;28;20039;-71
2022/04/09 07:25:31;;;;;;;16.85;3.92;;;;;;;9.29;63.31;100820.72;4979775;28;20034;-71
2022/04/09 07:27:56;;;;;;;23.17;3.78;;;;;;;9.89;61.25;100812.31;4964101;28;20039;-70
2022/04/09 07:30:24;;;;;;;32.38;5.68;;;;;;;10.32;60.27;100821.03;4985177;28;20022;-70
2022/04/09 07:32:50;;;;;;;32.80;5.45;;;;;;;10.00;60.29;100819.00;4963669;28;20062;-70
2022/04/09 07:35:16;;;;;;;20.17;4.22;;;;;;;10.16;59.16;100823.50;4966365;28;21131;-71
2022/04/09 07:37:47;;;;;;;25.35;4.32;;;;;;;10.13;58.42;100825.44;4964957;28;20598;-70
2022/04/09 07:40:14;;;;;;;15.60;3.67;;;;;;;9.04;61.70;100838.56;4982979;28;20404;-71
2022/04/09 07:42:42;;;;;;;15.40;3.17;;;;;;;8.23;64.69;100833.97;4973318;28;20035;-69
2022/04/09 07:45:09;;;;;;;13.40;3.17;;;;;;;8.28;65.47;100842.09;4969992;28;20038;-70
2022/04/09 07:47:35;;;;;;;25.17;5.43;;;;;;;9.07;63.66;100845.22;4962636;28;20081;-70
2022/04/09 07:50:02;;;;;;;18.00;3.60;;;;;;;9.47;61.63;100849.19;4963633;28;20049;-70
2022/04/09 07:52:27;;;;;;;20.75;3.70;;;;;;;8.75;65.51;100849.03;4970969;28;20031;-70
2022/04/09 07:54:57;;;;;;;27.23;3.88;;;;;;;7.81;70.88;100854.94;4970533;28;20039;-71
2022/04/09 07:57:26;;;;;;;14.25;4.05;;;;;;;7.28;74.45;100874.16;4966977;28;20036;-70
2022/04/09 07:59:57;;;;;;;28.17;3.80;;;;;;;6.89;78.56;100868.88;4960751;28;20058;-72
2022/04/09 08:02:23;;;;;;;24.20;4.97;;;;;;;6.54;77.74;100867.53;4959365;28;20037;-70
2022/04/09 08:04:48;;;;;;;20.50;4.00;;;;;;;6.43;79.43;100872.75;4964555;28;20030;-70
2022/04/09 08:07:14;;;;;;;18.42;4.22;;;;;;;6.14;80.69;100875.97;4960915;28;20031;-71
2022/04/09 08:09:40;;;;;;;18.60;4.10;;;;;;;5.92;83.31;100871.72;4963429;28;20035;-71
2022/04/09 08:12:06;;;;;;;25.70;4.15;;;;;;;5.75;83.74;100880.78;4967070;28;20073;-71
2022/04/09 08:14:33;;;;;;;15.73;4.15;;;;;;;6.06;83.25;100880.09;5055885;28;20039;-71
2022/04/09 08:16:59;;;;;;;27.30;4.32;;;;;;;5.68;83.20;100883.97;4965293;28;20551;-70
2022/04/09 08:19:25;;;;;;;25.75;4.22;;;;;;;5.57;83.62;100895.91;5034732;23;20565;-70
2022/04/09 08:21:52;;;;;;;17.92;4.07;;;;;;;5.36;84.39;100893.28;5065225;28;20116;-71
2022/04/09 08:24:17;;;;;;;24.05;5.35;;;;;;;5.15;84.96;100892.38;5049310;28;20024;-71
2022/04/09 08:26:43;;;;;;;30.92;5.22;;;;;;;5.02;85.09;100897.63;5064800;28;20524;-71
2022/04/09 08:29:09;;;;;;;17.70;3.40;;;;;;;5.18;84.82;100897.25;5056747;28;20044;-71
2022/04/09 08:35:22;;;;;;;21.77;4.50;;;;;;;5.23;87.60;100905.44;5056741;28;20521;-71
2022/04/09 08:37:55;;;;;;;20.42;4.35;;;;;;;5.32;86.19;100909.88;5046673;28;20029;-71
2022/04/09 08:40:21;;;;;;;;;;;;;;;5.40;86.20;100935.00;5052887;28;20506;-71
2022/04/09 08:42:48;;;;;;;17.27;4.75;;;;;;;5.30;87.14;100942.63;5048576;28;19912;-71
2022/04/09 08:45:17;;;;;;;14.77;3.65;;;;;;;5.31;86.85;100939.09;5053144;28;20029;-72
2022/04/09 08:47:44;;;;;;;17.55;3.00;;;;;;;4.96;84.41;100937.47;5055281;28;20028;-71
2022/04/09 08:50:14;;;;;;;12.82;3.35;;;;;;;4.77;85.70;100937.22;5050009;28;20025;-71
2022/04/09 08:52:41;;;;;;;13.38;2.90;;;;;;;4.74;85.31;100948.53;5051545;28;20635;-71
2022/04/09 08:55:09;;;;;;;14.75;4.00;;;;;;;4.61;86.50;100942.69;5051443;28;20044;-71
2022/04/09 08:57:35;;;;;;;13.85;3.10;;;;;;;4.60;87.44;100941.88;5055620;28;20107;-71
2022/04/09 09:00:10;;;;;;;18.05;4.05;;;;;;;4.72;87.60;100942.69;5049276;28;20119;-71
2022/04/09 09:02:51;;;;;;;19.58;3.85;;;;;;;4.73;87.11;100941.78;5037511;28;20387;-71
2022/04/09 09:05:37;;;;;;;11.32;3.70;;;;;;;5.45;88.18;100945.75;5052820;28;20028;-71
2022/04/09 09:08:04;;;;;;;16.67;2.95;;;;;;;6.73;82.61;100940.72;5050429;28;20045;-71
2022/04/09 09:10:30;;;;;;;17.75;4.07;;;;;;;7.71;81.62;100940.13;5057847;28;20025;-71
2022/04/09 09:13:01;;;;;;;12.15;3.90;;;;;;;8.16;77.51;100938.78;5052000;28;20068;-71
2022/04/09 09:15:27;;;;;;;14.45;2.53;;;;;;;8.76;74.81;100936.00;5052464;28;20119;-71
2022/04/09 09:17:59;;;;;;;11.60;3.45;;;;;;;9.24;74.50;100934.97;5053303;28;20755;-71
2022/04/09 09:20:25;;;;;;;13.65;3.15;;;;;;;9.12;73.04;100934.38;5053935;28;20024;-70
2022/04/09 09:22:51;;;;;;;17.25;3.70;;;;;;;9.31;73.17;100936.03;5026962;28;20367;-71
2022/04/09 09:25:17;;;;;;;11.70;2.60;;;;;;;8.94;74.45;100931.69;5053258;28;20673;-71
2022/04/09 09:27:43;;;;;;;17.83;3.78;;;;;;;8.43;75.86;100932.13;5037175;28;20045;-70
2022/04/09 09:30:11;;;;;;;18.45;2.90;;;;;;;8.05;76.46;100933.75;5055605;28;20029;-70
2022/04/09 09:32:38;;;;;;;12.65;3.55;;;;;;;8.02;75.85;100929.66;5036357;28;20100;-71
2022/04/09 09:35:05;;;;;;;16.33;3.47;;;;;;;7.77;74.38;100931.81;5053882;28;20783;-71
2022/04/09 09:37:31;;;;;;;12.73;3.50;;;;;;;8.38;74.99;100932.50;5052409;28;20090;-71
2022/04/09 09:39:57;;;;;;;20.58;4.30;;;;;;;9.11;74.36;100926.75;5050032;28;20067;-71
2022/04/09 09:42:24;;;;;;;15.00;3.22;;;;;;;9.41;68.62;100910.09;5056748;28;20142;-71
2022/04/09 09:44:50;;;;;;;17.20;3.78;;;;;;;9.62;68.64;100914.19;5029063;28;20029;-71
2022/04/09 09:47:16;;;;;;;14.48;3.22;;;;;;;9.28;64.00;100914.81;5050001;28;20056;-72
2022/04/09 09:49:58;;;;;;;8.95;2.90;;;;;;;9.47;62.76;100913.88;5052816;28;20051;-71
2022/04/09 09:52:25;;;;;;;14.20;3.50;;;;;;;9.68;63.04;100913.59;5050453;28;20037;-71
2022/04/09 09:55:10;;;;;;;12.00;3.75;;;;;;;9.59;60.45;100917.91;5050717;28;20036;-70
2022/04/09 09:57:38;;;;;;;16.02;3.83;;;;;;;10.01;62.80;100908.75;5050726;28;20052;-71
2022/04/09 10:00:12;;;;;;;12.10;3.65;;;;;;;10.45;63.37;100911.34;5051852;28;20033;-71
2022/04/09 10:02:39;;;;;;;14.38;2.75;;;;;;;10.51;62.54;100913.34;5045651;28;20501;-71
2022/04/09 10:05:06;;;;;;;12.82;2.25;;;;;;;10.60;58.23;100914.19;5047556;28;20075;-72
2022/04/09 10:07:33;;;;;;;10.00;1.80;;;;;;;10.79;58.39;100924.34;5044976;28;20041;-71
2022/04/09 10:10:06;;;;;;;20.25;3.42;;;;;;;10.57;56.81;100920.50;5051148;28;20037;-71
2022/04/09 10:12:39;;;;;;;8.07;2.05;;;;;;;10.05;58.40;100913.44;5043004;28;20632;-71
2022/04/09 10:15:04;;;;;;;;;;;;;;;9.51;58.62;100933.34;5050354;28;20041;-72
2022/04/09 10:17:33;;;;;;;15.80;4.90;;;;;;;8.86;58.26;100946.31;5055284;28;20471;-71
2022/04/09 10:20:01;;;;;;;5.28;1.90;;;;;;;8.16;60.37;100947.34;5049052;28;20457;-71
2022/04/09 10:22:42;;;;;;;3.78;0.95;;;;;;;7.67;64.15;100949.09;5037877;28;20447;-71
2022/04/09 10:25:08;;;;;;;4.80;1.00;;;;;;;7.29;65.67;100949.78;5048195;28;20090;-71
2022/04/09 10:27:35;;;;;;;5.65;1.38;;;;;;;7.04;66.92;100971.69;5053857;28;20028;-71
2022/04/09 10:30:05;;;;;;;4.38;1.10;;;;;;;6.79;68.96;100978.88;5052656;28;20029;-71
2022/04/09 10:32:45;;;;;;;6.90;1.10;;;;;;;6.51;68.90;100982.91;5053385;28;20040;-71
2022/04/09 10:35:26;;;;;;;8.80;1.30;;;;;;;6.27;71.25;100963.31;5063004;28;20751;-72
2022/04/09 10:38:23;;;;;;;5.57;1.55;;;;;;;5.96;72.46;100952.13;5049068;28;20494;-71
2022/04/09 10:40:57;;;;;;;2.45;1.00;;;;;;;6.07;73.72;100969.28;5030370;28;20722;-72
2022/04/09 10:43:24;;;;;;;10.13;1.40;;;;;;;6.07;74.07;100964.94;5041897;28;20514;-72
2022/04/09 10:46:02;;;;;;;7.63;2.50;;;;;;;6.12;75.94;100967.13;5045295;28;20124;-71
2022/04/09 10:48:33;;;;;;;5.38;1.52;;;;;;;6.22;75.78;100968.06;5049356;28;20037;-71
2022/04/09 10:51:06;;;;;;;9.10;1.75;;;;;;;6.26;75.61;100968.63;5050491;28;20158;-71
2022/04/09 10:53:33;;;;;;;13.15;2.17;;;;;;;6.42;75.84;100967.25;5045103;28;20037;-71
2022/04/09 10:56:24;;;;;;;9.57;2.15;;;;;;;6.46;74.71;100973.00;5053996;28;20383;-71
2022/04/09 10:59:29;;;;;;;7.60;2.03;;;;;;;6.72;75.06;100967.44;5039852;28;20601;-70
2022/04/09 11:01:55;;;;;;;7.20;1.80;;;;;;;7.28;77.19;100959.28;5049245;28;20028;-70
2022/04/09 11:04:27;;;;;;;8.25;3.10;;;;;;;7.63;74.28;100962.38;5047398;28;20033;-71
2022/04/09 11:07:02;;;;;;;6.43;1.90;;;;;;;7.95;75.27;100962.97;5046009;28;20036;-71
2022/04/09 11:09:42;;;;;;;6.57;1.55;;;;;;;8.28;73.22;100960.94;5051455;28;20052;-71
2022/04/09 11:12:08;;;;;;;5.13;1.98;;;;;;;8.44;72.68;100952.66;5068381;28;20558;-71
2022/04/09 11:14:48;;;;;;;13.88;2.38;;;;;;;8.62;70.18;100947.59;5050837;28;20040;-70
2022/04/09 11:17:27;;;;;;;6.60;1.80;;;;;;;8.80;66.45;100957.19;5044833;28;20105;-71
2022/04/09 11:19:53;;;;;;;5.07;1.50;;;;;;;8.80;68.17;100947.69;5044780;28;20037;-72
2022/04/09 11:22:20;;;;;;;5.63;1.60;;;;;;;9.02;68.18;100956.06;5040735;28;20017;-70
2022/04/09 11:24:45;;;;;;;8.95;1.55;;;;;;;9.21;65.08;100944.81;5055637;28;20035;-70
2022/04/09 11:27:11;;;;;;;6.63;1.58;;;;;;;9.45;67.11;100949.44;5055831;28;20037;-70
2022/04/09 11:29:39;;;;;;;5.85;1.40;;;;;;;9.48;60.66;100944.81;5052838;28;20052;-71
2022/04/09 11:32:05;;;;;;;5.07;1.48;;;;;;;9.53;60.10;100942.59;5047907;28;20120;-71
2022/04/09 11:34:47;;;;;;;7.95;1.10;;;;;;;9.60;59.08;100940.22;5055903;28;20037;-71
2022/04/09 11:37:13;;;;;;;11.98;1.95;;;;;;;9.70;58.46;100938.41;5027603;28;20039;-70